Time;durP1;ratioP1;P1;durP2;ratioP2;P2;SDS_P1;SDS_P2;PMS_P1;PMS_P2;Temp;Humidity;BMP_temperature;BMP_pressure;BME280_temperature;BME280_humidity;BME280_pressure;Samples;Min_cycle;Max_cycle;Signal;HPM_P1;HPM_P2
2022/07/26 00:00:49;;;;;;;;;;;;;;;22.76;60.44;99235.34;4477709;32;36928;-86
2022/07/26 00:03:14;;;;;;;;;;;;;;;22.80;60.45;99234.91;4455467;32;30716;-85
2022/07/26 00:05:40;;;;;;;;;;;;;;;22.71;60.44;99235.72;4469257;32;19980;-86
2022/07/26 00:08:11;;;;;;;;;;;;;;;22.69;60.44;99227.06;4479605;32;20006;-86
2022/07/26 00:10:37;;;;;;;;;;;;;;;22.47;60.43;99222.03;4470310;32;19990;-86
2022/07/26 00:13:03;;;;;;;;;;;;;;;22.35;60.42;99219.50;4468979;32;20012;-86
2022/07/26 00:15:28;;;;;;;;;;;;;;;22.39;60.42;99224.53;4470853;32;20326;-86
2022/07/26 00:17:53;;;;;;;;;;;;;;;22.33;60.42;99215.31;4485511;31;25726;-86
2022/07/26 00:20:18;;;;;;;;;;;;;;;22.42;60.43;99214.47;4485103;31;20077;-86
2022/07/26 00:22:44;;;;;;;;;;;;;;;22.33;60.43;99210.00;4486025;31;19984;-85
2022/07/26 00:25:09;;;;;;;;;;;;;;;22.38;60.41;99210.44;4471168;32;23635;-85
2022/07/26 00:27:37;;;;;;;;;;;;;;;22.34;60.42;99207.22;4470032;32;20293;-86
2022/07/26 00:30:04;;;;;;;;;;;;;;;22.47;60.42;99204.28;4459488;31;20007;-86
2022/07/26 00:32:29;;;;;;;;;;;;;;;22.30;60.42;99197.88;4488753;31;20041;-86
2022/07/26 00:34:54;;;;;;;;;;;;;;;22.34;60.43;99209.03;4469010;32;20035;-86
2022/07/26 00:37:19;;;;;;;;;;;;;;;22.34;60.43;99204.56;4484988;32;27577;-86
2022/07/26 00:39:45;;;;;;;;;;;;;;;22.24;60.42;99201.06;4476125;32;20039;-86
2022/07/26 00:42:10;;;;;;;;;;;;;;;22.17;60.41;99202.56;4471347;32;20692;-94
2022/07/26 00:44:45;;;;;;;;;;;;;;;22.29;60.42;99195.34;4461959;32;19972;-95
2022/07/26 00:47:10;;;;;;;;;;;;;;;22.27;60.42;99190.19;4474442;32;20029;-94
2022/07/26 00:49:35;;;;;;;;;;;;;;;22.22;60.41;99203.00;4463920;32;20307;-92
2022/07/26 00:52:01;;;;;;;;;;;;;;;22.16;60.42;99202.72;4457595;32;20306;-92
2022/07/26 00:54:26;;;;;;;;;;;;;;;22.28;60.42;99202.47;4466921;32;19981;-93
2022/07/26 00:56:52;;;;;;;;;;;;;;;22.19;60.41;99197.12;4463267;32;19981;-93
2022/07/26 00:59:17;;;;;;;;;;;;;;;22.19;60.42;99186.53;4471424;32;19993;-94
2022/07/26 01:02:23;;;;;;;;;;;;;;;22.07;60.40;99188.47;4470731;32;20365;-94
2022/07/26 01:04:51;;;;;;;;;;;;;;;22.21;60.41;99190.72;4455655;32;20077;-94
2022/07/26 01:07:16;;;;;;;;;;;;;;;22.17;60.41;99186.66;4458788;32;19985;-94
2022/07/26 01:09:41;;;;;;;;;;;;;;;22.03;60.41;99171.97;4458609;32;20000;-94
2022/07/26 01:18:26;;;;;;;;;;;;;;;22.02;60.41;99172.94;4478681;31;19977;-94
2022/07/26 01:21:22;;;;;;;;;;;;;;;;;;;;;
2022/07/26 01:24:17;;;;;;;;;;;;;;;;;;;;;
2022/07/26 01:30:19;;;;;;;;;;;;;;;21.93;60.39;99165.78;4486025;31;19949;-95
2022/07/26 01:33:27;;;;;;;;;;;;;;;;;;;;;
2022/07/26 01:42:18;;;;;;;;;;;;;;;21.87;60.40;99139.84;4425360;32;19981;-94
2022/07/26 01:44:46;;;;;;;;;;;;;;;21.72;60.39;99135.88;4458282;32;19996;-95
2022/07/26 01:47:48;;;;;;;;;;;;;;;21.72;60.39;99134.06;4479697;32;19997;-96
2022/07/26 01:50:21;;;;;;;;;;;;;;;21.74;60.39;99140.06;4485934;32;19965;-93
2022/07/26 01:52:46;;;;;;;;;;;;;;;21.73;60.39;99135.75;4477211;32;19977;-91
2022/07/26 01:55:12;;;;;;;;;;;;;;;21.67;60.38;99133.63;4456561;32;20820;-90
2022/07/26 01:57:37;;;;;;;;;;;;;;;21.50;60.38;99144.84;4464444;32;19989;-92
2022/07/26 02:00:03;;;;;;;;;;;;;;;21.42;60.37;99134.94;4472244;32;20043;-91
2022/07/26 02:02:28;;;;;;;;;;;;;;;21.35;60.37;99138.25;4486500;31;19964;-92
2022/07/26 02:05:00;;;;;;;;;;;;;;;21.45;60.37;99137.31;4462504;32;20015;-91
2022/07/26 02:07:29;;;;;;;;;;;;;;;21.58;60.38;99133.63;4460059;32;20098;-92
2022/07/26 02:09:55;;;;;;;;;;;;;;;21.47;60.38;99134.53;4480462;32;20005;-92
2022/07/26 02:12:20;;;;;;;;;;;;;;;21.64;60.38;99125.97;4469431;32;19977;-92
2022/07/26 02:14:45;;;;;;;;;;;;;;;21.71;60.40;99132.41;4470316;32;19993;-92
2022/07/26 02:17:10;;;;;;;;;;;;;;;21.62;60.39;99137.66;4459127;32;19993;-93
2022/07/26 02:19:36;;;;;;;;;;;;;;;21.79;60.40;99133.56;4472831;32;20461;-92
2022/07/26 02:22:01;;;;;;;;;;;;;;;21.68;60.38;99140.63;4485998;32;19964;-92
2022/07/26 02:24:27;;;;;;;;;;;;;;;21.61;60.38;99146.59;4467893;32;20012;-92
2022/07/26 02:26:53;;;;;;;;;;;;;;;21.49;60.38;99147.63;4457435;32;20054;-92
2022/07/26 02:29:18;;;;;;;;;;;;;;;21.29;60.36;99149.34;4471319;32;20036;-93
2022/07/26 02:31:46;;;;;;;;;;;;;;;21.31;60.37;99150.91;4464996;32;19977;-93
2022/07/26 02:34:11;;;;;;;;;;;;;;;21.20;60.36;99150.13;4473353;32;19999;-93
2022/07/26 02:36:36;;;;;;;;;;;;;;;21.21;60.36;99151.78;4466551;32;19992;-93
2022/07/26 02:39:02;;;;;;;;;;;;;;;21.15;60.35;99153.16;4458029;32;19976;-94
2022/07/26 02:45:00;;;;;;;;;;;;;;;;;;;;;
2022/07/26 02:50:42;;;;;;;;;;;;;;;21.19;60.36;99145.78;4465835;32;19972;-95
2022/07/26 02:53:22;;;;;;;;;;;;;;;21.13;60.35;99139.22;4473997;32;20026;-95
2022/07/26 02:56:28;;;;;;;;;;;;;;;21.02;60.35;99136.62;4469681;32;19953;-94
2022/07/26 03:02:12;;;;;;;;;;;;;;;21.16;60.36;99138.97;4472271;32;20658;-95
2022/07/26 03:04:58;;;;;;;;;;;;;;;21.10;60.35;99142.97;4461280;32;19995;-95
2022/07/26 03:07:28;;;;;;;;;;;;;;;21.01;60.36;99146.38;4481782;31;20011;-96
2022/07/26 03:10:05;;;;;;;;;;;;;;;;;;;;;
2022/07/26 03:12:34;;;;;;;;;;;;;;;21.06;60.35;99141.56;4486487;32;35831;-95
2022/07/26 03:15:24;;;;;;;;;;;;;;;21.15;60.35;99142.56;4470985;32;19976;-95
2022/07/26 03:17:49;;;;;;;;;;;;;;;21.03;60.35;99138.31;4480043;32;20041;-94
2022/07/26 03:20:15;;;;;;;;;;;;;;;21.12;60.35;99140.19;4465970;32;19993;-94
2022/07/26 03:22:40;;;;;;;;;;;;;;;21.03;60.35;99144.44;4473148;32;19992;-95
2022/07/26 03:25:05;;;;;;;;;;;;;;;21.13;60.35;99147.16;4470458;32;20030;-95
2022/07/26 03:27:33;;;;;;;;;;;;;;;21.43;60.37;99146.38;4484520;32;20510;-94
2022/07/26 03:29:59;;;;;;;;;;;;;;;21.21;60.36;99146.50;4470684;32;19961;-96
2022/07/26 03:32:24;;;;;;;;;;;;;;;21.26;60.36;99146.97;4471840;32;20008;-95
2022/07/26 03:34:49;;;;;;;;;;;;;;;21.21;60.36;99149.16;4469863;32;19999;-94
2022/07/26 03:37:15;;;;;;;;;;;;;;;21.13;60.35;99145.34;4460433;32;19992;-94
2022/07/26 03:39:40;;;;;;;;;;;;;;;21.13;60.35;99141.88;4459210;32;19985;-94
2022/07/26 03:42:05;;;;;;;;;;;;;;;21.17;60.36;99147.72;4466467;32;20005;-95
2022/07/26 03:44:31;;;;;;;;;;;;;;;21.13;60.35;99140.06;4467152;32;19995;-95
2022/07/26 03:47:00;;;;;;;;;;;;;;;21.30;60.36;99137.81;4472992;32;19976;-94
2022/07/26 03:49:28;;;;;;;;;;;;;;;21.34;60.36;99131.28;4460147;32;19999;-94
2022/07/26 03:51:55;;;;;;;;;;;;;;;21.44;60.37;99126.84;4458239;32;20329;-94
2022/07/26 03:54:21;;;;;;;;;;;;;;;21.71;60.39;99126.25;4465920;32;20090;-95
2022/07/26 03:56:46;;;;;;;;;;;;;;;21.78;60.38;99121.28;4473508;32;20393;-95
2022/07/26 03:59:12;;;;;;;;;;;;;;;21.79;60.39;99120.31;4475310;32;19999;-94
2022/07/26 04:01:40;;;;;;;;;;;;;;;21.91;60.39;99121.84;4463340;32;19980;-91
2022/07/26 04:04:09;;;;;;;;;;;;;;;21.95;60.40;99110.00;4471668;32;19995;-93
2022/07/26 04:06:34;;;;;;;;;;;;;;;22.02;60.40;99108.50;4468377;32;20317;-92
2022/07/26 04:09:00;;;;;;;;;;;;;;;22.16;60.40;99107.28;4474548;32;19984;-92
2022/07/26 04:11:25;;;;;;;;;;;;;;;22.27;60.41;99105.34;4486863;32;20020;-95
2022/07/26 04:13:50;;;;;;;;;;;;;;;22.58;60.43;99102.53;4474310;32;20366;-94
2022/07/26 04:16:16;;;;;;;;;;;;;;;22.68;60.43;99098.88;4474705;32;20316;-93
2022/07/26 04:18:41;;;;;;;;;;;;;;;22.92;60.45;99100.28;4475563;32;20093;-93
2022/07/26 04:21:06;;;;;;;;;;;;;;;23.02;60.44;99097.62;4463717;32;19991;-94
2022/07/26 04:23:31;;;;;;;;;;;;;;;23.05;60.45;99094.69;4471833;32;19981;-95
2022/07/26 04:25:57;;;;;;;;;;;;;;;23.27;60.46;99094.31;4470381;32;19999;-93
2022/07/26 04:28:25;;;;;;;;;;;;;;;23.52;60.48;99103.44;4458990;32;20408;-93
2022/07/26 04:31:09;;;;;;;;;;;;;;;;;;;;;
2022/07/26 04:33:38;;;;;;;;;;;;;;;23.77;60.48;99113.41;4479807;32;35709;-96
2022/07/26 04:36:10;;;;;;;;;;;;;;;23.71;60.48;99153.88;4460950;32;20001;-96
2022/07/26 04:41:38;;;;;;;;;;;;;;;23.44;60.47;99213.09;4480721;26;20658;-95
2022/07/26 04:44:03;;;;;;;;;;;;;;;23.53;60.47;99182.16;4451713;32;19972;-95
2022/07/26 04:46:29;;;;;;;;;;;;;;;23.91;60.49;99183.03;4433914;32;20020;-95
2022/07/26 04:48:54;;;;;;;;;;;;;;;24.01;60.50;99175.81;4452544;32;20404;-96
2022/07/26 04:51:22;;;;;;;;;;;;;;;24.11;60.50;99179.25;4455048;32;19977;-95
2022/07/26 04:53:47;;;;;;;;;;;;;;;24.34;60.52;99172.56;4443763;32;19989;-95
2022/07/26 04:56:13;;;;;;;;;;;;;;;24.35;60.51;99170.72;4453096;32;19988;-96
2022/07/26 04:58:38;;;;;;;;;;;;;;;24.57;60.53;99172.94;4459703;32;20265;-95
2022/07/26 05:01:03;;;;;;;;;;;;;;;24.78;60.54;99162.00;4450892;32;19977;-92
2022/07/26 05:03:29;;;;;;;;;;;;;;;25.02;60.55;99180.84;4444057;32;19988;-92
2022/07/26 05:05:54;;;;;;;;;;;;;;;25.12;60.57;99164.78;4457121;32;19993;-93
2022/07/26 05:08:19;;;;;;;;;;;;;;;25.12;60.55;99166.62;4457325;32;20026;-92
2022/07/26 05:10:45;;;;;;;;;;;;;;;25.28;60.56;99158.72;4445230;32;19997;-94
2022/07/26 05:13:10;;;;;;;;;;;;;;;25.26;60.56;99158.88;4471258;32;20314;-94
2022/07/26 05:15:38;;;;;;;;;;;;;;;25.44;60.57;99158.00;4457916;32;20027;-93
2022/07/26 05:18:04;;;;;;;;;;;;;;;25.56;60.59;99162.06;4458265;32;19989;-94
2022/07/26 05:20:29;;;;;;;;;;;;;;;25.56;60.59;99162.06;4471223;32;20036;-93
2022/07/26 05:22:55;;;;;;;;;;;;;;;25.71;60.59;99171.16;4457856;32;19973;-94
2022/07/26 05:25:20;;;;;;;;;;;;;;;25.76;60.60;99163.50;4470944;32;20043;-94
2022/07/26 05:27:47;;;;;;;;;;;;;;;25.73;60.59;99163.81;4453322;32;19985;-94
2022/07/26 05:30:12;;;;;;;;;;;;;;;25.88;60.60;99156.06;4448894;32;20307;-93
2022/07/26 05:32:37;;;;;;;;;;;;;;;25.93;60.61;99154.56;4456356;32;19992;-94
2022/07/26 05:35:03;;;;;;;;;;;;;;;26.15;60.61;99162.97;4453076;32;20328;-94
2022/07/26 05:37:29;;;;;;;;;;;;;;;26.38;60.62;99155.22;4444872;32;20029;-93
2022/07/26 05:39:54;;;;;;;;;;;;;;;26.68;60.63;99149.25;4458295;32;20100;-92
2022/07/26 05:42:19;;;;;;;;;;;;;;;26.81;60.65;99151.44;4447515;32;20241;-94
2022/07/26 05:44:46;;;;;;;;;;;;;;;26.97;60.65;99151.41;4457256;32;19992;-93
2022/07/26 05:47:11;;;;;;;;;;;;;;;27.19;60.67;99148.06;4457939;32;20091;-94
2022/07/26 05:49:36;;;;;;;;;;;;;;;27.47;60.68;99147.69;4457680;32;20005;-93
2022/07/26 05:52:02;;;;;;;;;;;;;;;27.45;60.68;99139.84;4453165;32;19992;-93
2022/07/26 05:54:27;;;;;;;;;;;;;;;27.47;60.68;99145.03;4441689;32;20023;-92
2022/07/26 05:56:52;;;;;;;;;;;;;;;27.38;60.67;99148.72;4465439;32;19996;-92
2022/07/26 05:59:18;;;;;;;;;;;;;;;27.32;60.67;99142.22;4449512;32;20219;-92
2022/07/26 06:01:43;;;;;;;;;;;;;;;27.29;60.67;99147.06;4450825;32;19973;-91
2022/07/26 06:04:09;;;;;;;;;;;;;;;27.57;60.68;99142.97;4456443;32;20338;-91
2022/07/26 06:06:34;;;;;;;;;;;;;;;27.71;60.69;99147.66;4456286;32;19993;-91
2022/07/26 06:08:59;;;;;;;;;;;;;;;27.86;60.70;99146.91;4456026;32;20009;-91
2022/07/26 06:11:24;;;;;;;;;;;;;;;27.89;60.69;99143.88;4455747;32;20034;-91
2022/07/26 06:13:50;;;;;;;;;;;;;;;28.06;60.71;99150.81;4452718;32;21945;-90
2022/07/26 06:16:15;;;;;;;;;;;;;;;28.24;60.72;99139.84;4461592;32;20003;-91
2022/07/26 06:18:40;;;;;;;;;;;;;;;28.36;60.72;99149.16;4455097;32;20106;-91
2022/07/26 06:21:06;;;;;;;;;;;;;;;28.35;60.72;99150.16;4455926;32;20312;-91
2022/07/26 06:23:32;;;;;;;;;;;;;;;28.48;60.73;99149.59;4458127;32;20002;-90
2022/07/26 06:25:57;;;;;;;;;;;;;;;28.24;60.71;99151.38;4458375;32;20000;-90
2022/07/26 06:28:22;;;;;;;;;;;;;;;28.16;60.72;99153.28;4461822;32;22253;-90
2022/07/26 06:30:47;;;;;;;;;;;;;;;28.29;60.73;99150.88;4463188;32;19988;-90
2022/07/26 06:33:13;;;;;;;;;;;;;;;28.30;60.72;99150.72;4456656;32;20277;-90
2022/07/26 06:35:38;;;;;;;;;;;;;;;28.29;60.72;99149.03;4431582;32;20354;-91
2022/07/26 06:38:04;;;;;;;;;;;;;;;28.03;60.71;99151.16;4455187;32;20510;-90
2022/07/26 06:40:29;;;;;;;;;;;;;;;28.24;60.72;99146.03;4469498;32;20010;-89
2022/07/26 06:42:54;;;;;;;;;;;;;;;28.37;60.73;99148.97;4454871;32;20015;-89
2022/07/26 06:45:20;;;;;;;;;;;;;;;28.30;60.72;99150.72;4469561;32;20033;-89
2022/07/26 06:47:45;;;;;;;;;;;;;;;28.35;60.72;99134.94;4455335;32;19973;-90
2022/07/26 06:50:10;;;;;;;;;;;;;;;28.48;60.73;99134.38;4454733;32;27021;-90
2022/07/26 06:52:36;;;;;;;;;;;;;;;28.62;60.74;99136.25;4455400;32;20021;-90
2022/07/26 06:55:01;;;;;;;;;;;;;;;28.68;60.74;99143.59;4455086;32;20023;-89
2022/07/26 06:57:26;;;;;;;;;;;;;;;28.89;60.75;99139.44;4455335;32;19999;-89
2022/07/26 06:59:51;;;;;;;;;;;;;;;29.12;60.76;99129.50;4455206;32;19973;-89
2022/07/26 07:02:17;;;;;;;;;;;;;;;29.23;60.76;99138.91;4455114;32;20243;-89
2022/07/26 07:04:42;;;;;;;;;;;;;;;29.35;60.77;99137.47;4454695;32;20007;-89
2022/07/26 07:07:07;;;;;;;;;;;;;;;29.38;60.77;99118.31;4454490;32;23419;-89
2022/07/26 07:09:33;;;;;;;;;;;;;;;29.29;60.77;99130.97;4467932;32;19977;-88
2022/07/26 07:12:00;;;;;;;;;;;;;;;29.34;60.77;99125.06;4467677;32;20019;-87
2022/07/26 07:14:25;;;;;;;;;;;;;;;29.36;60.77;99123.03;4469157;32;19984;-88
2022/07/26 07:16:51;;;;;;;;;;;;;;;29.59;60.78;99117.63;4468747;32;22743;-87
2022/07/26 07:19:16;;;;;;;;;;;;;;;29.76;60.79;99118.22;4469147;32;20289;-87
2022/07/26 07:21:41;;;;;;;;;;;;;;;29.75;60.79;99125.44;4468526;32;28342;-87
2022/07/26 07:24:06;;;;;;;;;;;;;;;29.72;60.79;99115.09;4467979;32;34129;-87
2022/07/26 07:26:31;;;;;;;;;;;;;;;29.86;60.79;99118.78;4468191;32;26951;-88
2022/07/26 07:28:57;;;;;;;;;;;;;;;29.80;60.79;99123.00;4468795;32;19969;-87
2022/07/26 07:31:22;;;;;;;;;;;;;;;29.94;60.80;99129.38;4455307;32;28927;-87
2022/07/26 07:33:47;;;;;;;;;;;;;;;30.11;60.80;99108.56;4469574;32;19985;-87
2022/07/26 07:36:13;;;;;;;;;;;;;;;30.05;60.81;99128.94;4455904;32;26395;-87
2022/07/26 07:38:38;;;;;;;;;;;;;;;30.21;60.82;99128.69;4470045;32;29626;-87
2022/07/26 07:41:03;;;;;;;;;;;;;;;30.39;60.82;99116.69;4469929;32;23073;-86
2022/07/26 07:43:28;;;;;;;;;;;;;;;30.51;60.83;99123.19;4456543;32;20373;-88
2022/07/26 07:45:54;;;;;;;;;;;;;;;30.33;60.82;99130.91;4456126;32;20007;-89
2022/07/26 07:48:19;;;;;;;;;;;;;;;30.48;60.83;99135.16;4456646;32;20013;-88
2022/07/26 07:50:44;;;;;;;;;;;;;;;30.55;60.83;99119.13;4455873;32;22642;-88
2022/07/26 07:53:09;;;;;;;;;;;;;;;30.78;60.84;99124.34;4470909;32;19965;-88
2022/07/26 07:55:34;;;;;;;;;;;;;;;30.60;60.84;99138.19;4465560;32;20022;-88
2022/07/26 07:58:00;;;;;;;;;;;;;;;30.20;60.82;99156.56;4450584;32;20365;-87
2022/07/26 08:00:25;;;;;;;;;;;;;;;30.17;60.80;99153.44;4456465;32;20378;-87
2022/07/26 08:02:50;;;;;;;;;;;;;;;30.10;60.81;99150.69;4456922;32;20032;-89
2022/07/26 08:05:16;;;;;;;;;;;;;;;30.17;60.81;99158.81;4456706;32;20012;-88
2022/07/26 08:07:41;;;;;;;;;;;;;;;30.02;60.80;99156.09;4470321;32;27997;-89
2022/07/26 08:10:06;;;;;;;;;;;;;;;29.98;60.80;99151.31;4461996;32;20009;-89
2022/07/26 08:12:31;;;;;;;;;;;;;;;29.80;60.80;99157.91;4476735;32;19969;-88
2022/07/26 08:14:57;;;;;;;;;;;;;;;29.48;60.78;99153.75;4471246;32;19999;-89
2022/07/26 08:17:22;;;;;;;;;;;;;;;29.63;60.78;99148.41;4467422;32;19985;-88
2022/07/26 08:19:47;;;;;;;;;;;;;;;29.61;60.78;99131.66;4462857;32;20012;-89
2022/07/26 08:22:12;;;;;;;;;;;;;;;29.98;60.80;99138.72;4455736;32;20007;-88
2022/07/26 08:24:39;;;;;;;;;;;;;;;30.24;60.81;99144.41;4468611;32;22645;-88
2022/07/26 08:27:04;;;;;;;;;;;;;;;29.99;60.80;99145.75;4470421;32;20025;-88
2022/07/26 08:29:29;;;;;;;;;;;;;;;29.94;60.79;99143.62;4470232;32;20024;-88
2022/07/26 08:31:55;;;;;;;;;;;;;;;29.83;60.79;99146.81;4455198;32;30257;-87
2022/07/26 08:34:20;;;;;;;;;;;;;;;30.05;60.79;99144.19;4466296;32;19992;-87
2022/07/26 08:36:46;;;;;;;;;;;;;;;30.25;60.81;99134.50;4447706;32;19998;-88
2022/07/26 08:39:11;;;;;;;;;;;;;;;30.47;60.83;99140.72;4455969;32;20020;-88
2022/07/26 08:41:39;;;;;;;;;;;;;;;30.20;60.82;99143.12;4469474;32;20252;-88
2022/07/26 08:44:05;;;;;;;;;;;;;;;30.22;60.82;99127.66;4456518;32;19988;-87
2022/07/26 08:46:31;;;;;;;;;;;;;;;30.21;60.82;99128.69;4470451;32;19969;-87
2022/07/26 08:48:56;;;;;;;;;;;;;;;30.13;60.82;99120.78;4456217;32;19968;-87
2022/07/26 08:51:22;;;;;;;;;;;;;;;30.16;60.81;99131.13;4470558;32;19995;-88
2022/07/26 08:53:47;;;;;;;;;;;;;;;30.01;60.81;99124.09;4470596;32;20313;-87
2022/07/26 08:56:12;;;;;;;;;;;;;;;30.17;60.81;99124.72;4470188;32;19969;-88
2022/07/26 08:58:39;;;;;;;;;;;;;;;30.52;60.83;99124.87;4455655;32;20011;-87
2022/07/26 09:01:10;;;;;;;;;;;;;;;30.71;60.84;99126.94;4469085;32;20356;-88
2022/07/26 09:03:36;;;;;;;;;;;;;;;31.01;60.85;99124.09;4443243;32;19973;-87
2022/07/26 09:06:14;;;;;;;;;;;;;;;31.25;60.87;99129.06;4456299;32;19988;-87
2022/07/26 09:08:39;;;;;;;;;;;;;;;31.36;60.87;99144.62;4470301;32;19997;-87
2022/07/26 09:11:34;;;;;;;;;;;;;;;31.01;60.85;99148.28;4456140;32;20008;-88
2022/07/26 09:14:00;;;;;;;;;;;;;;;31.34;60.87;99146.69;4447671;32;20741;-88
2022/07/26 09:16:25;;;;;;;;;;;;;;;30.87;60.85;99157.25;4455966;32;19977;-88
2022/07/26 09:18:50;;;;;;;;;;;;;;;30.93;60.85;99175.28;4470133;32;19977;-88
2022/07/26 09:21:45;;;;;;;;;;;;;;;30.64;60.83;99177.09;4455885;32;19996;-87
2022/07/26 09:24:10;;;;;;;;;;;;;;;30.30;60.82;99190.34;4447596;32;19981;-88
2022/07/26 09:26:35;;;;;;;;;;;;;;;30.08;60.81;99197.53;4470077;32;19960;-88
2022/07/26 09:29:08;;;;;;;;;;;;;;;29.69;60.78;99224.59;4468484;32;20043;-88
2022/07/26 09:31:33;;;;;;;;;;;;;;;29.31;60.78;99241.53;4455808;32;20296;-87
2022/07/26 09:33:58;;;;;;;;;;;;;;;28.99;60.75;99271.28;4455702;32;19985;-87
2022/07/26 09:36:24;;;;;;;;;;;;;;;28.62;60.74;99280.03;4455786;32;19968;-87
2022/07/26 09:38:50;;;;;;;;;;;;;;;28.39;60.72;99307.59;4455761;32;19997;-87
2022/07/26 09:41:17;;;;;;;;;;;;;;;28.06;60.71;99316.72;4450336;32;19993;-87
2022/07/26 09:43:42;;;;;;;;;;;;;;;28.00;60.70;99314.72;4446184;32;19972;-88
2022/07/26 09:46:09;;;;;;;;;;;;;;;27.89;60.69;99296.34;4453517;32;21473;-89
2022/07/26 09:48:37;;;;;;;;;;;;;;;27.80;60.69;99264.28;4455402;32;20020;-90
2022/07/26 09:51:02;;;;;;;;;;;;;;;27.72;60.69;99258.94;4458042;32;20336;-89
2022/07/26 09:53:32;;;;;;;;;;;;;;;27.77;60.69;99269.97;4464832;32;20016;-90
2022/07/26 09:55:58;;;;;;;;;;;;;;;27.43;60.68;99293.34;4442013;32;19991;-90
2022/07/26 09:58:23;;;;;;;;;;;;;;;26.95;60.66;99297.66;4452653;32;20004;-89
2022/07/26 10:00:48;;;;;;;;;;;;;;;26.60;60.63;99307.59;4454376;32;20001;-89
2022/07/26 10:03:14;;;;;;;;;;;;;;;26.30;60.62;99284.94;4442560;32;19978;-89
2022/07/26 10:05:39;;;;;;;;;;;;;;;26.11;60.61;99258.50;4452407;32;19981;-89
2022/07/26 10:08:04;;;;;;;;;;;;;;;25.69;60.58;99242.44;4452769;32;20047;-91
2022/07/26 10:10:30;;;;;;;;;;;;;;;25.60;60.58;99254.03;4453092;32;19992;-89
2022/07/26 10:12:56;;;;;;;;;;;;;;;25.20;60.56;99265.22;4450512;32;20000;-90
2022/07/26 10:15:34;;;;;;;;;;;;;;;25.06;60.56;99277.25;4449497;32;20320;-90
2022/07/26 10:17:59;;;;;;;;;;;;;;;25.02;60.55;99294.53;4454422;32;20683;-90
2022/07/26 10:20:38;;;;;;;;;;;;;;;24.83;60.54;99307.94;4454088;32;19988;-91
2022/07/26 10:23:03;;;;;;;;;;;;;;;24.57;60.52;99302.50;4453021;32;20492;-90
2022/07/26 10:25:31;;;;;;;;;;;;;;;24.74;60.53;99307.03;4452198;32;30864;-91
2022/07/26 10:27:56;;;;;;;;;;;;;;;24.63;60.53;99313.41;4465800;32;20321;-90
2022/07/26 10:30:22;;;;;;;;;;;;;;;24.58;60.52;99313.00;4452695;32;19969;-91
2022/07/26 10:33:00;;;;;;;;;;;;;;;24.46;60.52;99324.84;4440348;32;20294;-90
2022/07/26 10:35:35;;;;;;;;;;;;;;;24.52;60.53;99328.72;4452830;32;19985;-90
2022/07/26 10:38:03;;;;;;;;;;;;;;;24.41;60.52;99325.28;4443146;32;19981;-89
2022/07/26 10:40:31;;;;;;;;;;;;;;;24.28;60.51;99322.09;4465512;32;20004;-89
2022/07/26 10:43:17;;;;;;;;;;;;;;;24.17;60.50;99319.62;4452417;32;20349;-89
2022/07/26 10:45:42;;;;;;;;;;;;;;;24.24;60.50;99322.53;4464916;32;20040;-89
2022/07/26 10:48:07;;;;;;;;;;;;;;;24.20;60.51;99329.97;4465421;32;20024;-89
2022/07/26 10:50:33;;;;;;;;;;;;;;;24.24;60.51;99325.19;4452520;32;20023;-89
2022/07/26 10:52:58;;;;;;;;;;;;;;;24.14;60.51;99326.06;4453828;32;20352;-89
2022/07/26 10:55:23;;;;;;;;;;;;;;;24.23;60.51;99331.50;4452483;32;19965;-90
2022/07/26 10:57:49;;;;;;;;;;;;;;;24.27;60.50;99324.88;4452444;32;20334;-89
2022/07/26 11:00:18;;;;;;;;;;;;;;;24.38;60.51;99335.38;4465263;32;20005;-88
2022/07/26 11:02:46;;;;;;;;;;;;;;;24.59;60.53;99330.63;4452493;32;19978;-88
2022/07/26 11:05:15;;;;;;;;;;;;;;;24.74;60.52;99339.81;4453374;32;20010;-89
2022/07/26 11:07:46;;;;;;;;;;;;;;;24.66;60.52;99333.56;4452027;32;20365;-89
2022/07/26 11:10:11;;;;;;;;;;;;;;;24.53;60.52;99319.75;4453803;32;19999;-89
2022/07/26 11:12:37;;;;;;;;;;;;;;;24.63;60.52;99320.56;4452087;32;19977;-88
2022/07/26 11:15:12;;;;;;;;;;;;;;;24.72;60.52;99324.97;4453712;32;19992;-88
2022/07/26 11:17:37;;;;;;;;;;;;;;;24.88;60.53;99319.00;4453628;32;19977;-89
2022/07/26 11:20:03;;;;;;;;;;;;;;;25.15;60.55;99323.44;4442666;32;20236;-89
2022/07/26 11:22:32;;;;;;;;;;;;;;;25.21;60.54;99320.16;4446643;32;19973;-88
2022/07/26 11:24:57;;;;;;;;;;;;;;;25.18;60.55;99313.31;4453222;32;20148;-88
2022/07/26 11:27:22;;;;;;;;;;;;;;;25.31;60.56;99316.41;4452562;32;20031;-88
2022/07/26 11:29:47;;;;;;;;;;;;;;;25.33;60.55;99311.81;4454164;32;23474;-89
2022/07/26 11:32:17;;;;;;;;;;;;;;;25.48;60.56;99305.91;4455333;32;19987;-88
2022/07/26 11:34:44;;;;;;;;;;;;;;;25.48;60.57;99322.72;4457704;32;19962;-88
2022/07/26 11:37:09;;;;;;;;;;;;;;;25.35;60.55;99322.31;4461776;32;20045;-89
2022/07/26 11:39:34;;;;;;;;;;;;;;;25.25;60.55;99321.53;4453287;32;20231;-87
2022/07/26 11:42:02;;;;;;;;;;;;;;;25.46;60.55;99321.22;4451993;32;19989;-88
2022/07/26 11:44:28;;;;;;;;;;;;;;;25.44;60.55;99325.88;4451777;32;20035;-88
2022/07/26 11:46:53;;;;;;;;;;;;;;;25.51;60.56;99314.41;4453159;32;20004;-88
2022/07/26 11:49:22;;;;;;;;;;;;;;;25.43;60.57;99309.03;4453134;32;19973;-89
2022/07/26 11:51:51;;;;;;;;;;;;;;;25.35;60.55;99303.66;4451718;32;20000;-88
2022/07/26 11:54:17;;;;;;;;;;;;;;;25.42;60.56;99311.84;4439029;32;20310;-89
2022/07/26 11:56:58;;;;;;;;;;;;;;;25.53;60.55;99306.28;4451561;32;20096;-88
2022/07/26 11:59:24;;;;;;;;;;;;;;;25.52;60.56;99312.59;4439116;32;19989;-89
2022/07/26 12:01:49;;;;;;;;;;;;;;;25.50;60.56;99317.25;4452931;32;19983;-88
2022/07/26 12:04:28;;;;;;;;;;;;;;;25.47;60.57;99314.87;4438740;32;20008;-88
2022/07/26 12:06:53;;;;;;;;;;;;;;;25.55;60.57;99317.59;4438633;32;20359;-88
2022/07/26 12:09:28;;;;;;;;;;;;;;;25.53;60.56;99308.94;4452738;32;19973;-88
2022/07/26 12:11:53;;;;;;;;;;;;;;;25.51;60.56;99313.59;4452740;32;19987;-89
2022/07/26 12:14:26;;;;;;;;;;;;;;;25.49;60.56;99311.06;4437864;32;19986;-88
2022/07/26 12:16:51;;;;;;;;;;;;;;;25.54;60.57;99297.28;4453476;32;19989;-88
2022/07/26 12:19:16;;;;;;;;;;;;;;;25.69;60.56;99301.94;4440373;32;19996;-89
2022/07/26 12:21:43;;;;;;;;;;;;;;;25.93;60.59;99279.91;4454817;32;20016;-88
2022/07/26 12:24:08;;;;;;;;;;;;;;;26.22;60.60;99292.06;4450948;32;19981;-89
2022/07/26 12:26:33;;;;;;;;;;;;;;;26.25;60.60;99289.06;4453703;32;20373;-88
2022/07/26 12:29:23;;;;;;;;;;;;;;;26.25;60.60;99292.56;4453535;32;20293;-89
2022/07/26 12:31:44;;;;;;;;;;;;;;;26.18;60.60;99288.03;4454801;32;20023;-89
2022/07/26 12:34:09;;;;;;;;;;;;;;;26.15;60.58;99288.38;4453711;32;19988;-88
2022/07/26 12:36:34;;;;;;;;;;;;;;;26.11;60.60;99289.69;4453769;32;20004;-88
2022/07/26 12:38:59;;;;;;;;;;;;;;;26.14;60.59;99292.87;4453922;32;20337;-88
2022/07/26 12:41:31;;;;;;;;;;;;;;;26.15;60.58;99302.53;4458236;32;23655;-89
2022/07/26 12:43:58;;;;;;;;;;;;;;;26.00;60.59;99296.94;4456516;32;19973;-89
2022/07/26 12:46:23;;;;;;;;;;;;;;;25.63;60.57;99309.69;4456602;32;19984;-88
2022/07/26 12:48:48;;;;;;;;;;;;;;;25.49;60.56;99307.56;4468988;32;20044;-89
2022/07/26 12:51:13;;;;;;;;;;;;;;;25.58;60.56;99307.50;4456082;32;20015;-88
2022/07/26 12:53:39;;;;;;;;;;;;;;;25.63;60.57;99291.87;4470172;32;21617;-89
2022/07/26 12:56:04;;;;;;;;;;;;;;;25.61;60.56;99288.53;4470664;32;20380;-88
2022/07/26 12:58:29;;;;;;;;;;;;;;;25.84;60.57;99275.53;4456347;32;19980;-88
2022/07/26 13:00:54;;;;;;;;;;;;;;;26.13;60.59;99280.53;4455475;32;30498;-89
2022/07/26 13:03:20;;;;;;;;;;;;;;;26.60;60.61;99270.22;4456004;32;19996;-88
2022/07/26 13:05:45;;;;;;;;;;;;;;;26.72;60.61;99267.22;4456095;32;20332;-88
2022/07/26 13:08:10;;;;;;;;;;;;;;;26.76;60.63;99265.94;4455967;32;30145;-89
2022/07/26 13:10:35;;;;;;;;;;;;;;;26.89;60.63;99259.09;4445294;32;25309;-89
2022/07/26 13:13:01;;;;;;;;;;;;;;;26.87;60.62;99265.59;4457969;32;22985;-89
2022/07/26 13:15:26;;;;;;;;;;;;;;;27.04;60.64;99264.66;4458833;32;20305;-89
2022/07/26 13:17:51;;;;;;;;;;;;;;;27.04;60.64;99266.50;4461485;32;20061;-89
2022/07/26 13:20:16;;;;;;;;;;;;;;;27.20;60.65;99264.63;4463401;32;20285;-88
2022/07/26 13:22:41;;;;;;;;;;;;;;;27.23;60.65;99278.69;4455869;32;19996;-88